Reklama

Seznam meteostanic a jejich METAR

Vyhledat místa podle abecedy:
A B C D E F G H I J K L M N O P Q R S T U V W X Y Z

Filtrovat:

ID stanice:
a/nebo
Název místa (fulltext):
 
Místo (ID)Naposledy načteno 
Brussels (EBBR) 31.05.2020 02:50 UTC Zobrazit METAR
EBBR 310250Z 10003KT CAVOK 12/04 Q1022 NOSIG
Bucharest (LRBS) 31.05.2020 03:00 UTC Zobrazit METAR
LRBS 310300Z 27005KT CAVOK 10/09 Q1011 R07/19//95 NOSIG
Budapest (LHBP) 31.05.2020 03:00 UTC Zobrazit METAR
LHBP 310300Z 31008KT CAVOK 10/07 Q1012 NOSIG
Buenos Aires (SABE) 31.05.2020 03:00 UTC Zobrazit METAR
SABE 310300Z 26011G21KT 200V300 CAVOK 09/03 Q1016 NOSIG
Bujumbura (HBBA) 22.04.2020 14:00 UTC Zobrazit METAR
HBBA 221400Z 20004KT 9999 -RA SCT020 OVC100 23/21 Q1013 NOSIG
Burgas (LBBG) 31.05.2020 03:00 UTC Zobrazit METAR
LBBG 310300Z 24006KT CAVOK 11/10 Q1013 NOSIG
Bydgoszcz (EPBY) 31.05.2020 03:00 UTC Zobrazit METAR
EPBY 310300Z 33008KT CAVOK 12/07 Q1016
Cairo (HECA) 31.05.2020 03:00 UTC Zobrazit METAR
HECA 310300Z 04009KT CAVOK 17/12 Q1017 NOSIG
Canberra (YSCB) 31.05.2020 03:00 UTC Zobrazit METAR
YSCB 310300Z AUTO 32016KT 9999 // BKN094 15/07 Q1015 FM0300 MOD TURB BLW 5000FT RMK USE TAF FOR ARRIVALS AFTER 0430Z
Caracas (SVMP) Zatím nenačteno  
Cayenne (SOCA) 31.05.2020 02:00 UTC Zobrazit METAR
SOCA 310200Z AUTO 00000KT 9999 SCT020 BKN045 BKN060 26/26 Q1014 TEMPO 2000 SHRA SCT012TCU BKN015
Charlotte Amalie (TIST) 31.05.2020 02:53 UTC Zobrazit METAR
TIST 310253Z 09008KT 10SM CLR 27/23 A3003 RMK AO2 SLP170 6//// T02720228 51007 PNO
Chisinau (LUKK) 31.05.2020 03:00 UTC Zobrazit METAR
LUKK 310300Z 26012KT CAVOK 12/07 Q1007 R26/190095 NOSIG
Colombo (VCBI) 31.05.2020 03:10 UTC Zobrazit METAR
VCBI 310310Z 17006KT 140V210 9999 BKN018 29/28 Q1011 NOSIG
Conakry (GUCY) 30.05.2020 17:00 UTC Zobrazit METAR
GUCY 301700Z 27008KT 9999 SCT015 BKN110 31/26 Q1010 NOSIG
Constanta (LRCK) 31.05.2020 03:00 UTC Zobrazit METAR
LRCK 310300Z 24010KT CAVOK 10/08 Q1011 R36/29//95 NOSIG
Constantine (DABC) 31.05.2020 03:00 UTC Zobrazit METAR
DABC 310300Z 00000KT 9999 FEW040 09/08 Q1017
Copenhagen (EKCH) 30.05.2020 17:50 UTC Zobrazit METAR
EKCH 301750Z AUTO 18009KT 9999 BKN075/// 14/07 Q1026 NOSIG
Cork (EICK) 31.05.2020 03:00 UTC Zobrazit METAR
EICK 310300Z 08007KT 9999 FEW045 12/09 Q1019 NOSIG
Cotonou (DBBB) 31.05.2020 03:00 UTC Zobrazit METAR
DBBB 310300Z 30003KT 270V330 9999 FEW011 25/24 Q1012 NOSIG
Curacao Island (TNCC) 31.05.2020 03:00 UTC Zobrazit METAR
TNCC 310300Z 10010KT 9999 FEW017 27/24 Q1014 NOSIG
Dakar (GOOY) 31.05.2020 03:00 UTC Zobrazit METAR
GOOY 310300Z 32012KT CAVOK 24/20 Q1012
Damascus (OSDI) 31.05.2020 03:00 UTC Zobrazit METAR
OSDI 310300Z 31004KT CAVOK 08/01 Q1017
Debrecen (LHDC) 31.05.2020 02:45 UTC Zobrazit METAR
LHDC 310245Z AUTO 24004KT 210V280 CAVOK 10/07 Q1011
Delhi (VIDP) 31.05.2020 03:00 UTC Zobrazit METAR
VIDP 310300Z 11007KT 5000 HZ FEW040 SCT100 26/20 Q1008 NOSIG
Dhaka (VGZR) Zatím nenačteno  
Diego Garcia (FJDG) 31.05.2020 02:55 UTC Zobrazit METAR
FJDG 310255Z 10008KT 9999 FEW021 FEW250 29/26 A2988 RMK SLP115 8/101 T02890255 52010
Djibouti (HDAM) 30.05.2020 15:00 UTC Zobrazit METAR
HDAM 301500Z 11005KT 9000 HZ SCT266 36/22 Q1003
Dnipropetrovs'k (UKDD) 12.08.2013 14:00 UTC Zobrazit METAR
UKDD 121400Z CAVOK 33/13 Q1012 08090070 NOSIG
Dodoma (HTDO) 31.05.2020 03:00 UTC Zobrazit METAR
HTDO 310300Z 00000KT CAVOK 15/14 Q1021 NOSIG
Doha (OTBD) 31.05.2020 03:00 UTC Zobrazit METAR
OTBD 310300Z AUTO 26003KT 210V300 CAVOK 32/24 Q1004 NOSIG
Dortmund (EDLW) 31.05.2020 01:50 UTC Zobrazit METAR
EDLW 310150Z AUTO 06005KT 9999 // SCT063/// BKN073/// 11/05 Q1023
Dresden (EDDC) 31.05.2020 02:50 UTC Zobrazit METAR
EDDC 310250Z 30004KT CAVOK 08/05 Q1020
Dublin (EIDW) 31.05.2020 03:00 UTC Zobrazit METAR
EIDW 310300Z 11003KT CAVOK 08/07 Q1021 NOSIG
Dubrovnik (LDDU) 31.05.2020 03:00 UTC Zobrazit METAR
LDDU 310300Z 09007KT 9999 OVC053 13/10 Q1014 NOSIG
Dushanbe (UTDD) Zatím nenačteno  
Dusseldorf (EDDL) 31.05.2020 02:50 UTC Zobrazit METAR
EDDL 310250Z 05006KT CAVOK 11/05 Q1022 NOSIG
Dzaoudzi (FMCZ) 31.05.2020 03:00 UTC Zobrazit METAR
FMCZ 310300Z AUTO 20016KT 9999 SCT016 27/24 Q1014 NOSIG
Edinburgh (EGPH) 31.05.2020 02:50 UTC Zobrazit METAR
EGPH 310250Z 04004KT CAVOK 09/08 Q1026
Eindhoven (EHEH) 30.05.2020 15:55 UTC Zobrazit METAR
EHEH 301555Z AUTO 06012KT 020V100 9999 SCT079 24/03 Q1021 BLU 06010G20KT CAVOK
Entebbe (HUEN) 28.05.2020 07:00 UTC Zobrazit METAR
HUEN 280700Z 18015KT 9000 -RA FEW021 FEW023 BKN100 22/18 1020
Esbjerg (EKEB) 30.05.2020 18:50 UTC Zobrazit METAR
EKEB 301850Z AUTO 10007KT 9999 BKN069/// 18/06 Q1026
Faro (LPFR) 31.05.2020 03:00 UTC Zobrazit METAR
LPFR 310300Z 03004KT CAVOK 22/11 Q1009
Florence (LIRQ) 31.05.2020 02:50 UTC Zobrazit METAR
LIRQ 310250Z VRB01KT CAVOK 12/10 Q1016
Foggia, Gino Lisa (LIBF) 30.05.2020 15:50 UTC Zobrazit METAR
LIBF 301550Z VRB02KT 9999 FEW030 SCT060 16/13 Q1015
Fort de France (TFFF) 31.05.2020 03:00 UTC Zobrazit METAR
TFFF 310300Z AUTO 11010KT 9999 FEW054 OVC230 27/22 Q1016
Frankfurt/ Main (EDDF) 31.05.2020 02:50 UTC Zobrazit METAR
EDDF 310250Z 02011KT CAVOK 13/05 Q1021 NOSIG
Freetown (GFLL) 05.05.2020 19:00 UTC Zobrazit METAR
GFLL 051900Z 27009KT 9999 SCT013 30/24 Q1008
Funafuti (NGFU) 30.05.2020 15:00 UTC Zobrazit METAR
NGFU 301500Z 10005KT 9999 FEW020 BKN300 29/26 Q1011
Gaborone (FBSK) 31.05.2020 03:00 UTC Zobrazit METAR
FBSK 310300Z 17002KT CAVOK 05/01 Q1026 NOSIG
Předchozí 1 2 3 4 5 ... 9 Další
Reklama

Lunární kalendář

  • 05.06.Fáze měsíce uplnek
  • 13.06.Fáze měsíce posl_ctvrt
  • 21.06.Fáze měsíce nov
  • 28.06.Fáze měsíce prv_ctvrt



Reklama
Meteodomečky

Počasí na Váš email

Emaily jsou bez reklamy a bez spamu



Odhlásit newsletter

Reklama


Další české internetové stránky (nejen) o počasí najdete v katalogu TOPlist - weby o počasí nebo vyhledejte na internetu, co jste tu na 🌞 Slunečnu ⛅ zatím nenašli:

Reklama